Time;durP1;ratioP1;P1;durP2;ratioP2;P2;SDS_P1;SDS_P2;PMS_P1;PMS_P2;Temp;Humidity;BMP_temperature;BMP_pressure;BME280_temperature;BME280_humidity;BME280_pressure;Samples;Min_cycle;Max_cycle;Signal;HPM_P1;HPM_P2
2023/04/27 00:02:25;;;;;;;8.15;2.80;;;;;;;;;;4993386;28;20430;-79
2023/04/27 00:04:58;;;;;;;5.50;2.40;;;;;;;;;;4991518;28;20453;-80
2023/04/27 00:07:26;;;;;;;7.25;2.92;;;;;;;;;;4991678;28;20426;-80
2023/04/27 00:09:58;;;;;;;9.82;2.90;;;;;;;;;;5007979;28;20434;-80
2023/04/27 00:12:26;;;;;;;9.40;2.63;;;;;;;;;;4991641;28;20431;-80
2023/04/27 00:14:59;;;;;;;8.30;2.80;;;;;;;;;;4993399;28;20431;-80
2023/04/27 00:17:28;;;;;;;7.53;2.75;;;;;;;;;;5007896;28;20435;-79
2023/04/27 00:19:56;;;;;;;7.00;2.90;;;;;;;;;;5006473;28;20430;-80
2023/04/27 00:22:29;;;;;;;7.50;2.67;;;;;;;;;;5007704;28;20445;-80
2023/04/27 00:25:02;;;;;;;7.47;2.25;;;;;;;;;;4983052;28;20431;-80
2023/04/27 00:27:35;;;;;;;7.15;2.88;;;;;;;;;;4992778;28;20903;-80
2023/04/27 00:30:03;;;;;;;6.87;2.57;;;;;;;;;;5007927;28;20811;-79
2023/04/27 00:32:32;;;;;;;8.07;2.63;;;;;;;;;;4990950;28;20437;-80
2023/04/27 00:35:05;;;;;;;9.98;2.58;;;;;;;;;;4990654;28;20434;-80
2023/04/27 00:37:38;;;;;;;6.55;2.60;;;;;;;;;;4986413;28;20430;-80
2023/04/27 00:40:07;;;;;;;8.48;2.40;;;;;;;;;;5007722;28;20422;-79
2023/04/27 00:42:35;;;;;;;7.37;2.60;;;;;;;;;;4990572;28;20439;-80
2023/04/27 00:45:05;;;;;;;7.15;2.67;;;;;;;;;;5008247;28;20414;-80
2023/04/27 00:47:34;;;;;;;7.83;2.73;;;;;;;;;;4990912;28;20767;-80
2023/04/27 00:50:09;;;;;;;7.55;2.85;;;;;;;;;;4999681;28;20429;-80
2023/04/27 00:52:42;;;;;;;8.13;2.77;;;;;;;;;;4999459;28;20435;-79
2023/04/27 00:55:10;;;;;;;7.57;2.67;;;;;;;;;;4991892;28;20406;-80
2023/04/27 00:57:43;;;;;;;8.30;2.55;;;;;;;;;;5007437;28;20941;-80
2023/04/27 01:00:12;;;;;;;5.80;2.50;;;;;;;;;;4991670;28;20425;-79
2023/04/27 01:02:41;;;;;;;8.33;2.63;;;;;;;;;;5000234;28;20419;-80
2023/04/27 01:05:17;;;;;;;7.97;2.80;;;;;;;;;;4991000;28;20437;-80
2023/04/27 01:07:46;;;;;;;8.90;3.03;;;;;;;;;;4990739;28;21077;-80
2023/04/27 01:10:14;;;;;;;8.27;2.92;;;;;;;;;;4990143;28;22526;-79
2023/04/27 01:12:42;;;;;;;8.82;3.10;;;;;;;;;;5007043;28;20438;-80
2023/04/27 01:15:14;;;;;;;8.65;3.50;;;;;;;;;;4992395;28;20428;-79
2023/04/27 01:17:44;;;;;;;7.90;3.22;;;;;;;;;;4991649;28;20419;-80
2023/04/27 01:20:11;;;;;;;9.23;3.20;;;;;;;;;;4990142;28;20459;-80
2023/04/27 01:22:44;;;;;;;10.60;3.28;;;;;;;;;;4999520;28;20434;-80
2023/04/27 01:25:19;;;;;;;8.82;3.45;;;;;;;;;;4992094;28;20927;-80
2023/04/27 01:27:52;;;;;;;10.70;3.20;;;;;;;;;;4990130;28;20930;-80
2023/04/27 01:30:27;;;;;;;10.07;3.28;;;;;;;;;;4995787;28;20451;-80
2023/04/27 01:33:00;;;;;;;11.05;3.50;;;;;;;;;;4991781;28;20430;-79
2023/04/27 01:35:27;;;;;;;8.63;3.33;;;;;;;;;;4989986;28;20434;-79
2023/04/27 01:38:01;;;;;;;9.55;3.35;;;;;;;;;;5005402;28;20437;-80
2023/04/27 01:40:30;;;;;;;9.17;3.13;;;;;;;;;;4990095;28;20426;-80
2023/04/27 01:43:03;;;;;;;11.98;3.67;;;;;;;;;;4982917;28;20430;-80
2023/04/27 01:45:31;;;;;;;8.47;3.10;;;;;;;;;;5010071;28;20533;-79
2023/04/27 01:48:00;;;;;;;12.82;3.97;;;;;;;;;;4990959;28;20430;-79
2023/04/27 01:50:32;;;;;;;11.63;3.70;;;;;;;;;;5006348;28;20426;-79
2023/04/27 01:53:00;;;;;;;9.90;3.20;;;;;;;;;;4990906;28;20426;-80
2023/04/27 01:55:34;;;;;;;10.88;3.90;;;;;;;;;;4998889;28;20434;-80
2023/04/27 01:58:07;;;;;;;9.13;3.53;;;;;;;;;;4990629;28;21084;-80
2023/04/27 02:00:41;;;;;;;9.55;3.67;;;;;;;;;;5007172;28;20435;-80
2023/04/27 02:03:14;;;;;;;7.72;3.30;;;;;;;;;;4995570;28;20426;-80
2023/04/27 02:05:41;;;;;;;8.87;3.73;;;;;;;;;;4990339;28;20426;-80
2023/04/27 02:08:09;;;;;;;11.33;3.77;;;;;;;;;;4991133;28;20878;-80
2023/04/27 02:10:39;;;;;;;10.07;4.10;;;;;;;;;;4990428;28;20416;-79
2023/04/27 02:13:08;;;;;;;10.85;3.78;;;;;;;;;;5005682;28;20803;-80
2023/04/27 02:15:41;;;;;;;13.65;4.00;;;;;;;;;;4982535;28;20448;-80
2023/04/27 02:18:15;;;;;;;9.20;3.70;;;;;;;;;;4995628;28;20915;-80
2023/04/27 02:20:48;;;;;;;9.70;3.72;;;;;;;;;;5004800;28;20429;-80
2023/04/27 02:23:16;;;;;;;9.25;4.05;;;;;;;;;;4989102;28;20442;-79
2023/04/27 02:25:45;;;;;;;10.35;3.70;;;;;;;;;;5005307;28;20419;-80
2023/04/27 02:28:18;;;;;;;10.35;4.00;;;;;;;;;;4989577;28;20435;-79
2023/04/27 02:30:46;;;;;;;9.38;3.95;;;;;;;;;;5005680;28;20783;-79
2023/04/27 02:33:14;;;;;;;9.87;3.60;;;;;;;;;;5005293;28;21122;-79
2023/04/27 02:35:47;;;;;;;11.32;4.10;;;;;;;;;;5006540;28;20430;-79
2023/04/27 02:38:21;;;;;;;11.90;4.05;;;;;;;;;;5002568;28;20776;-79
2023/04/27 02:40:55;;;;;;;10.83;4.17;;;;;;;;;;4980911;28;20429;-80
2023/04/27 02:43:23;;;;;;;11.20;4.15;;;;;;;;;;4989494;28;20423;-80
2023/04/27 02:45:56;;;;;;;10.55;4.05;;;;;;;;;;4990019;28;20430;-80
2023/04/27 02:48:30;;;;;;;11.07;4.23;;;;;;;;;;4990913;28;20799;-79
2023/04/27 02:50:57;;;;;;;10.30;3.80;;;;;;;;;;4998663;28;20461;-79
2023/04/27 02:53:30;;;;;;;12.70;4.43;;;;;;;;;;4990340;28;20422;-80
2023/04/27 02:56:00;;;;;;;12.63;4.20;;;;;;;;;;4989061;28;20779;-80
2023/04/27 02:58:33;;;;;;;10.65;4.13;;;;;;;;;;5007618;28;20775;-80
2023/04/27 03:01:01;;;;;;;11.50;4.20;;;;;;;;;;4989790;28;20792;-80
2023/04/27 03:03:34;;;;;;;12.85;4.00;;;;;;;;;;5006170;28;20737;-80
2023/04/27 03:06:02;;;;;;;11.95;4.20;;;;;;;;;;4987197;28;20965;-80
2023/04/27 03:08:35;;;;;;;12.52;4.20;;;;;;;;;;5006898;28;20430;-79
2023/04/27 03:11:11;;;;;;;10.15;3.85;;;;;;;;;;4995354;28;20449;-80
2023/04/27 03:13:44;;;;;;;12.38;4.10;;;;;;;;;;4999275;28;20957;-80
2023/04/27 03:16:16;;;;;;;11.87;3.97;;;;;;;;;;4989563;28;20493;-79
2023/04/27 03:18:46;;;;;;;10.35;4.00;;;;;;;;;;4989672;28;20426;-80
2023/04/27 03:21:19;;;;;;;10.33;4.33;;;;;;;;;;4989271;28;20430;-79
2023/04/27 03:23:52;;;;;;;12.07;4.03;;;;;;;;;;4989960;28;20426;-80
2023/04/27 03:26:26;;;;;;;13.18;4.35;;;;;;;;;;4989732;28;20441;-80
2023/04/27 03:28:59;;;;;;;10.90;4.45;;;;;;;;;;4990759;28;20417;-80
2023/04/27 03:31:28;;;;;;;11.13;4.60;;;;;;;;;;5003192;28;21405;-80
2023/04/27 03:34:01;;;;;;;11.43;4.30;;;;;;;;;;4990207;28;20441;-79
2023/04/27 03:36:30;;;;;;;9.47;4.03;;;;;;;;;;5004895;28;20437;-79
2023/04/27 03:39:03;;;;;;;11.23;4.47;;;;;;;;;;4989011;28;20433;-80
2023/04/27 03:41:37;;;;;;;12.25;4.43;;;;;;;;;;4990121;28;20760;-80
2023/04/27 03:44:05;;;;;;;11.93;4.45;;;;;;;;;;4989902;28;20426;-80
2023/04/27 03:46:38;;;;;;;11.32;4.60;;;;;;;;;;5006614;28;20439;-80
2023/04/27 03:49:06;;;;;;;13.30;4.50;;;;;;;;;;4982477;28;20463;-79
2023/04/27 03:51:41;;;;;;;13.07;4.50;;;;;;;;;;5004295;28;20439;-79
2023/04/27 03:54:09;;;;;;;12.13;4.72;;;;;;;;;;4989361;28;20437;-79
2023/04/27 03:56:44;;;;;;;11.18;4.50;;;;;;;;;;4980571;28;20939;-80
2023/04/27 03:59:12;;;;;;;11.70;4.10;;;;;;;;;;4993860;28;20434;-80
2023/04/27 04:01:44;;;;;;;13.07;4.60;;;;;;;;;;4992146;28;20429;-80
2023/04/27 04:04:17;;;;;;;10.90;4.25;;;;;;;;;;4993441;28;20942;-80
2023/04/27 04:06:51;;;;;;;13.80;4.55;;;;;;;;;;5001604;28;20441;-79
2023/04/27 04:09:19;;;;;;;13.13;4.80;;;;;;;;;;4985162;28;20414;-80
2023/04/27 04:11:53;;;;;;;9.73;4.38;;;;;;;;;;4986025;28;20783;-80
2023/04/27 04:14:21;;;;;;;10.55;4.50;;;;;;;;;;4992510;28;20474;-80
2023/04/27 04:16:54;;;;;;;12.00;4.65;;;;;;;;;;5000425;28;20438;-79
2023/04/27 04:19:27;;;;;;;11.82;4.50;;;;;;;;;;4990994;28;20445;-80
2023/04/27 04:21:56;;;;;;;10.35;4.25;;;;;;;;;;4990307;28;20450;-80
2023/04/27 04:24:29;;;;;;;12.23;4.27;;;;;;;;;;5008141;28;20530;-80
2023/04/27 04:27:04;;;;;;;11.20;4.10;;;;;;;;;;5007773;28;20431;-80
2023/04/27 04:29:32;;;;;;;11.60;3.75;;;;;;;;;;4993183;28;20780;-80
2023/04/27 04:32:06;;;;;;;13.32;4.10;;;;;;;;;;4991477;28;20414;-80
2023/04/27 04:34:34;;;;;;;9.52;3.83;;;;;;;;;;4993951;28;20524;-80
2023/04/27 04:37:07;;;;;;;8.48;3.58;;;;;;;;;;5007593;28;20903;-80
2023/04/27 04:39:35;;;;;;;11.65;3.42;;;;;;;;;;5000248;28;20430;-80
2023/04/27 04:42:09;;;;;;;9.05;3.55;;;;;;;;;;4991008;28;20441;-80
2023/04/27 04:44:38;;;;;;;9.05;3.42;;;;;;;;;;5008535;28;20434;-79
2023/04/27 04:47:08;;;;;;;8.57;3.25;;;;;;;;;;5000096;28;20433;-80
2023/04/27 04:49:41;;;;;;;14.10;4.10;;;;;;;;;;4999555;28;20427;-80
2023/04/27 04:52:14;;;;;;;8.32;3.33;;;;;;;;;;4998942;28;20922;-80
2023/04/27 04:54:42;;;;;;;10.05;3.58;;;;;;;;;;4990634;28;20953;-80
2023/04/27 04:57:11;;;;;;;10.50;3.50;;;;;;;;;;5007429;28;20921;-79
2023/04/27 04:59:44;;;;;;;10.45;3.60;;;;;;;;;;4996295;28;20442;-80
2023/04/27 05:02:16;;;;;;;8.33;3.23;;;;;;;;;;5002957;28;20440;-80
2023/04/27 05:04:44;;;;;;;9.40;3.63;;;;;;;;;;4989187;28;20899;-79
2023/04/27 05:07:17;;;;;;;8.68;3.55;;;;;;;;;;4997104;28;20434;-80
2023/04/27 05:09:45;;;;;;;11.45;3.80;;;;;;;;;;5004282;28;20461;-81
2023/04/27 05:12:14;;;;;;;8.23;3.00;;;;;;;;;;4990219;28;20430;-80
2023/04/27 05:14:43;;;;;;;9.10;3.30;;;;;;;;;;4991532;28;20426;-80
2023/04/27 05:17:10;;;;;;;7.55;3.33;;;;;;;;;;4990277;28;20795;-80
2023/04/27 05:19:43;;;;;;;8.05;3.67;;;;;;;;;;4990390;28;20444;-81
2023/04/27 05:22:11;;;;;;;9.00;3.47;;;;;;;;;;4991449;28;20437;-81
2023/04/27 05:24:39;;;;;;;10.52;3.47;;;;;;;;;;4991775;28;20425;-82
2023/04/27 05:27:07;;;;;;;9.87;3.77;;;;;;;;;;4992054;28;20437;-80
2023/04/27 05:29:41;;;;;;;10.30;3.90;;;;;;;;;;4990928;28;20438;-80
2023/04/27 05:32:09;;;;;;;9.38;4.10;;;;;;;;;;5006522;28;20426;-80
2023/04/27 05:34:37;;;;;;;11.27;4.28;;;;;;;;;;4989028;28;20442;-80
2023/04/27 05:37:07;;;;;;;8.88;4.20;;;;;;;;;;4991997;28;20435;-80
2023/04/27 05:39:35;;;;;;;10.68;4.25;;;;;;;;;;4990427;28;20429;-80
2023/04/27 05:42:03;;;;;;;10.15;4.05;;;;;;;;;;4983422;28;20430;-79
2023/04/27 05:44:31;;;;;;;12.90;4.20;;;;;;;;;;4989361;28;20445;-80
2023/04/27 05:47:05;;;;;;;12.00;4.13;;;;;;;;;;4990480;28;20433;-80
2023/04/27 05:49:33;;;;;;;14.20;5.00;;;;;;;;;;4989490;28;20430;-81
2023/04/27 05:52:06;;;;;;;10.20;4.20;;;;;;;;;;4990474;28;20418;-80
2023/04/27 05:54:34;;;;;;;9.95;4.05;;;;;;;;;;4990153;28;20426;-79
2023/04/27 05:57:02;;;;;;;12.63;4.28;;;;;;;;;;4978978;28;20441;-80
2023/04/27 05:59:34;;;;;;;10.95;4.10;;;;;;;;;;4991159;28;20426;-80
2023/04/27 06:02:09;;;;;;;10.80;4.13;;;;;;;;;;4988693;28;20419;-80
2023/04/27 06:04:37;;;;;;;12.65;4.00;;;;;;;;;;5002178;28;20438;-80
2023/04/27 06:07:10;;;;;;;11.23;4.10;;;;;;;;;;5007134;28;20438;-80
2023/04/27 06:09:43;;;;;;;10.13;3.90;;;;;;;;;;5004339;28;20521;-80
2023/04/27 06:12:11;;;;;;;10.50;3.90;;;;;;;;;;5004763;28;20418;-80
2023/04/27 06:14:39;;;;;;;10.63;4.40;;;;;;;;;;4990857;28;20426;-80
2023/04/27 06:17:13;;;;;;;10.25;3.83;;;;;;;;;;4991618;28;20438;-80
2023/04/27 06:19:40;;;;;;;8.57;3.53;;;;;;;;;;5004521;28;20781;-80
2023/04/27 06:22:11;;;;;;;8.60;3.72;;;;;;;;;;4989085;28;20441;-80
2023/04/27 06:24:45;;;;;;;11.75;3.80;;;;;;;;;;4989605;28;20426;-80
2023/04/27 06:27:18;;;;;;;8.00;3.75;;;;;;;;;;4989288;28;20434;-79
2023/04/27 06:29:51;;;;;;;9.90;3.45;;;;;;;;;;4989024;28;20779;-80
2023/04/27 06:32:20;;;;;;;8.48;3.40;;;;;;;;;;5005438;28;20440;-79
2023/04/27 06:34:49;;;;;;;10.85;3.25;;;;;;;;;;4986282;28;20907;-81
2023/04/27 06:37:21;;;;;;;7.80;2.95;;;;;;;;;;4988585;28;20449;-80
2023/04/27 06:39:49;;;;;;;9.80;3.20;;;;;;;;;;4985017;28;21134;-80
2023/04/27 06:42:22;;;;;;;8.60;3.05;;;;;;;;;;4987009;28;20436;-80
2023/04/27 06:44:53;;;;;;;6.20;2.85;;;;;;;;;;4988954;28;20426;-80
2023/04/27 06:47:27;;;;;;;8.88;2.65;;;;;;;;;;4990067;28;20601;-80
2023/04/27 06:49:55;;;;;;;8.02;3.08;;;;;;;;;;5005415;28;20442;-79
2023/04/27 06:52:27;;;;;;;8.25;2.97;;;;;;;;;;4989998;28;20768;-79
2023/04/27 06:54:55;;;;;;;9.63;2.80;;;;;;;;;;4989213;28;20430;-79
2023/04/27 06:57:23;;;;;;;9.15;2.92;;;;;;;;;;4986090;28;20430;-80
2023/04/27 06:59:51;;;;;;;7.47;2.67;;;;;;;;;;4988199;28;20426;-80
2023/04/27 07:02:23;;;;;;;7.63;2.75;;;;;;;;;;4997028;28;21379;-80
2023/04/27 07:04:57;;;;;;;9.00;2.95;;;;;;;;;;4986801;28;20437;-80
2023/04/27 07:07:27;;;;;;;6.75;2.60;;;;;;;;;;4985732;28;20427;-80
2023/04/27 07:10:00;;;;;;;7.38;2.50;;;;;;;;;;4987266;28;20426;-80
2023/04/27 07:12:28;;;;;;;9.65;2.60;;;;;;;;;;4987056;28;20430;-80
2023/04/27 07:15:03;;;;;;;7.45;2.38;;;;;;;;;;4998572;28;20799;-80
2023/04/27 07:17:36;;;;;;;7.05;2.75;;;;;;;;;;4987332;28;20883;-80
2023/04/27 07:20:10;;;;;;;6.30;2.20;;;;;;;;;;4986881;28;20437;-80
2023/04/27 07:22:38;;;;;;;7.95;2.40;;;;;;;;;;4999537;28;20437;-80
2023/04/27 07:25:06;;;;;;;7.28;2.42;;;;;;;;;;4976109;28;20412;-80
2023/04/27 07:27:34;;;;;;;7.55;2.50;;;;;;;;;;4969053;28;20453;-80
2023/04/27 07:30:02;;;;;;;6.95;2.60;;;;;;;;;;4972446;28;20445;-80
2023/04/27 07:32:29;;;;;;;7.75;2.40;;;;;;;;;;4969106;28;20454;-81
2023/04/27 07:34:58;;;;;;;6.82;2.47;;;;;;;;;;4992641;28;20444;-80
2023/04/27 07:37:27;;;;;;;8.82;2.53;;;;;;;;;;4986652;28;20449;-81
2023/04/27 07:39:55;;;;;;;6.55;2.35;;;;;;;;;;4966060;28;21076;-80
2023/04/27 07:42:23;;;;;;;6.68;2.53;;;;;;;;;;4981759;28;20657;-80
2023/04/27 07:44:52;;;;;;;7.28;2.40;;;;;;;;;;4978555;28;20433;-80
2023/04/27 07:47:26;;;;;;;8.85;2.30;;;;;;;;;;4988209;28;20441;-81
2023/04/27 07:49:58;;;;;;;6.78;2.33;;;;;;;;;;4968663;28;20438;-82
2023/04/27 07:52:27;;;;;;;6.43;2.30;;;;;;;;;;4975002;28;21793;-80
2023/04/27 07:54:55;;;;;;;7.00;2.10;;;;;;;;;;4972894;28;21294;-81
2023/04/27 07:57:28;;;;;;;6.85;2.40;;;;;;;;;;4983978;28;20434;-80
2023/04/27 07:59:56;;;;;;;7.30;2.30;;;;;;;;;;4979238;28;20902;-81
2023/04/27 08:02:29;;;;;;;6.00;2.38;;;;;;;;;;4975037;28;21097;-80
2023/04/27 08:04:56;;;;;;;6.50;2.10;;;;;;;;;;4997811;28;20433;-80
2023/04/27 08:07:31;;;;;;;8.48;2.40;;;;;;;;;;4969659;28;20433;-81
2023/04/27 08:09:59;;;;;;;5.40;1.95;;;;;;;;;;4975225;28;20422;-80
2023/04/27 08:12:32;;;;;;;5.33;1.87;;;;;;;;;;4969861;28;20438;-81
2023/04/27 08:15:00;;;;;;;5.53;1.75;;;;;;;;;;4987052;28;20442;-80
2023/04/27 08:17:33;;;;;;;4.55;1.90;;;;;;;;;;4970972;28;20439;-80
2023/04/27 08:20:07;;;;;;;5.15;1.92;;;;;;;;;;4986812;28;20440;-80
2023/04/27 08:22:41;;;;;;;6.93;2.00;;;;;;;;;;4975221;28;21518;-80
2023/04/27 08:25:14;;;;;;;5.65;2.40;;;;;;;;;;4972587;28;20942;-79
2023/04/27 08:27:47;;;;;;;10.88;2.63;;;;;;;;;;4970876;28;20438;-80
2023/04/27 08:30:20;;;;;;;6.05;2.15;;;;;;;;;;4987323;28;21730;-81
2023/04/27 08:32:48;;;;;;;7.10;2.33;;;;;;;;;;4988226;28;20772;-80
2023/04/27 08:35:16;;;;;;;5.63;2.40;;;;;;;;;;4989508;28;20483;-81
2023/04/27 08:37:50;;;;;;;6.05;1.92;;;;;;;;;;4971047;28;20444;-80
2023/04/27 08:40:19;;;;;;;5.63;1.90;;;;;;;;;;4967722;28;20520;-81
2023/04/27 08:42:55;;;;;;;5.07;1.90;;;;;;;;;;4976154;28;20443;-80
2023/04/27 08:45:24;;;;;;;7.00;2.00;;;;;;;;;;4968640;28;20438;-81
2023/04/27 08:47:52;;;;;;;5.82;2.00;;;;;;;;;;4986545;28;20960;-81
2023/04/27 08:50:25;;;;;;;6.68;2.20;;;;;;;;;;4978641;28;21401;-82
2023/04/27 08:52:59;;;;;;;5.17;1.93;;;;;;;;;;4976435;28;21431;-82
2023/04/27 08:55:32;;;;;;;4.35;1.85;;;;;;;;;;4975080;28;20436;-81
2023/04/27 08:58:05;;;;;;;7.25;2.10;;;;;;;;;;4975714;28;20429;-82
2023/04/27 09:00:38;;;;;;;5.07;1.98;;;;;;;;;;4969994;28;20441;-81
2023/04/27 09:03:18;;;;;;;4.80;1.80;;;;;;;;;;4973200;28;20428;-80
2023/04/27 09:05:47;;;;;;;3.90;1.60;;;;;;;;;;4973895;28;20449;-81
2023/04/27 09:08:16;;;;;;;5.38;1.73;;;;;;;;;;4992598;28;21101;-81
2023/04/27 09:10:45;;;;;;;4.17;1.53;;;;;;;;;;4981832;28;20493;-81
2023/04/27 09:13:13;;;;;;;4.70;1.55;;;;;;;;;;4983948;28;20446;-81
2023/04/27 09:15:41;;;;;;;4.60;1.65;;;;;;;;;;4968877;28;20429;-81
2023/04/27 09:18:14;;;;;;;5.53;1.60;;;;;;;;;;4984945;28;20438;-83
2023/04/27 09:20:42;;;;;;;4.18;1.52;;;;;;;;;;4974507;28;20434;-81
2023/04/27 09:23:10;;;;;;;4.13;1.70;;;;;;;;;;4975097;28;20436;-83
2023/04/27 09:25:39;;;;;;;6.67;1.90;;;;;;;;;;4976314;28;20883;-81
2023/04/27 09:28:14;;;;;;;4.80;1.70;;;;;;;;;;4966703;28;20441;-81
2023/04/27 09:30:50;;;;;;;4.82;1.50;;;;;;;;;;4984893;28;20444;-81
2023/04/27 09:33:24;;;;;;;4.68;1.50;;;;;;;;;;4980955;28;20430;-81
2023/04/27 09:35:58;;;;;;;7.22;2.20;;;;;;;;;;4977277;28;20439;-84
2023/04/27 09:38:26;;;;;;;5.78;1.80;;;;;;;;;;4984059;28;20473;-83
2023/04/27 09:40:55;;;;;;;7.90;2.60;;;;;;;;;;4984102;28;20426;-81
2023/04/27 09:43:26;;;;;;;5.10;2.03;;;;;;;;;;4982601;28;20494;-82
2023/04/27 09:45:59;;;;;;;4.85;2.03;;;;;;;;;;4983742;28;20434;-81
2023/04/27 09:48:27;;;;;;;4.32;1.90;;;;;;;;;;4985543;28;20449;-81
2023/04/27 09:50:59;;;;;;;5.88;2.30;;;;;;;;;;4987373;28;20944;-81
2023/04/27 09:53:30;;;;;;;5.28;2.10;;;;;;;;;;4970679;28;20432;-81
2023/04/27 09:56:10;;;;;;;7.18;2.28;;;;;;;;;;4971525;28;20783;-82
2023/04/27 09:58:56;;;;;;;5.25;2.10;;;;;;;;;;4969922;28;20445;-82
2023/04/27 10:01:35;;;;;;;5.57;2.03;;;;;;;;;;4971601;28;20433;-82
2023/04/27 10:04:11;;;;;;;4.32;2.08;;;;;;;;;;4979479;28;20948;-82
2023/04/27 10:07:01;;;;;;;5.25;2.00;;;;;;;;;;4990048;28;20424;-81
2023/04/27 10:09:35;;;;;;;5.65;2.30;;;;;;;;;;4969598;28;20441;-81
2023/04/27 10:12:20;;;;;;;4.15;1.90;;;;;;;;;;4979343;28;20438;-80
2023/04/27 10:14:48;;;;;;;5.38;2.10;;;;;;;;;;4987157;28;20462;-83
2023/04/27 10:17:16;;;;;;;4.65;2.20;;;;;;;;;;4986254;28;20449;-81
2023/04/27 10:19:54;;;;;;;8.50;2.25;;;;;;;;;;4968016;28;20436;-80
2023/04/27 10:22:22;;;;;;;4.97;1.70;;;;;;;;;;4968772;28;20432;-82
2023/04/27 10:24:51;;;;;;;4.90;2.00;;;;;;;;;;4987258;28;21146;-81
2023/04/27 10:27:21;;;;;;;4.75;1.83;;;;;;;;;;4989009;28;20444;-80
2023/04/27 10:29:54;;;;;;;5.15;1.80;;;;;;;;;;4983876;28;20459;-79
2023/04/27 10:32:23;;;;;;;4.75;1.70;;;;;;;;;;4976397;28;20449;-80
2023/04/27 10:35:02;;;;;;;4.55;1.90;;;;;;;;;;4987032;28;20434;-81
2023/04/27 10:37:38;;;;;;;3.92;1.80;;;;;;;;;;4975613;28;20870;-80
2023/04/27 10:40:13;;;;;;;4.05;1.75;;;;;;;;;;4958900;28;20446;-81
2023/04/27 10:42:43;;;;;;;5.38;2.10;;;;;;;;;;4984096;28;20424;-80
2023/04/27 10:45:11;;;;;;;5.68;2.00;;;;;;;;;;4969192;28;21610;-80
2023/04/27 10:47:39;;;;;;;5.55;1.95;;;;;;;;;;4974464;28;20423;-82
2023/04/27 10:50:10;;;;;;;4.27;2.10;;;;;;;;;;4973852;28;20445;-81
2023/04/27 10:52:43;;;;;;;5.88;2.00;;;;;;;;;;4979184;28;20429;-80
2023/04/27 10:55:16;;;;;;;6.82;2.10;;;;;;;;;;4986572;28;20945;-80
2023/04/27 10:57:50;;;;;;;5.07;1.98;;;;;;;;;;4971997;28;20434;-81
2023/04/27 11:00:25;;;;;;;4.32;2.00;;;;;;;;;;4983109;28;20445;-81
2023/04/27 11:02:54;;;;;;;4.22;1.92;;;;;;;;;;4969557;28;20431;-81
2023/04/27 11:05:23;;;;;;;6.13;1.92;;;;;;;;;;4968691;28;20461;-80
2023/04/27 11:08:05;;;;;;;4.97;2.00;;;;;;;;;;4994843;28;20455;-81
2023/04/27 11:10:34;;;;;;;5.27;2.23;;;;;;;;;;4975657;28;21757;-80
2023/04/27 11:13:11;;;;;;;4.35;2.00;;;;;;;;;;4977579;28;20425;-80
2023/04/27 11:15:47;;;;;;;5.00;1.97;;;;;;;;;;4974898;28;20430;-80
2023/04/27 11:18:21;;;;;;;4.13;1.70;;;;;;;;;;4972329;28;20447;-81
2023/04/27 11:20:55;;;;;;;2.77;1.50;;;;;;;;;;4973864;28;20919;-80
2023/04/27 11:23:24;;;;;;;5.43;2.00;;;;;;;;;;4976000;28;20421;-80
2023/04/27 11:25:57;;;;;;;5.17;1.90;;;;;;;;;;4985648;28;20496;-80
2023/04/27 11:28:26;;;;;;;6.37;2.23;;;;;;;;;;4975839;28;20433;-80
2023/04/27 11:30:56;;;;;;;4.63;2.03;;;;;;;;;;4979337;28;20429;-80
2023/04/27 11:33:24;;;;;;;6.33;2.23;;;;;;;;;;4970778;28;20441;-80
2023/04/27 11:35:52;;;;;;;5.27;2.03;;;;;;;;;;4972261;28;20429;-81
2023/04/27 11:38:20;;;;;;;4.60;2.00;;;;;;;;;;4988114;28;21252;-81
2023/04/27 11:40:59;;;;;;;7.70;2.10;;;;;;;;;;4962597;28;20426;-81
2023/04/27 11:43:28;;;;;;;5.28;2.40;;;;;;;;;;4977528;28;20434;-82
2023/04/27 11:45:57;;;;;;;4.82;2.15;;;;;;;;;;4971431;28;20441;-80
2023/04/27 11:48:24;;;;;;;4.28;2.00;;;;;;;;;;4977723;28;20654;-81
2023/04/27 11:50:59;;;;;;;6.38;2.13;;;;;;;;;;4971368;28;20447;-80
2023/04/27 11:53:32;;;;;;;4.88;2.00;;;;;;;;;;4969880;28;20888;-81
2023/04/27 11:56:00;;;;;;;5.03;2.00;;;;;;;;;;4975985;28;20435;-80
2023/04/27 11:58:29;;;;;;;3.40;1.93;;;;;;;;;;4970481;28;20422;-80
2023/04/27 12:01:03;;;;;;;4.18;1.98;;;;;;;;;;4986730;28;20436;-80
2023/04/27 12:03:36;;;;;;;3.85;1.90;;;;;;;;;;4985469;28;20438;-81
2023/04/27 12:06:09;;;;;;;3.78;1.90;;;;;;;;;;4972524;28;21970;-81
2023/04/27 12:08:41;;;;;;;5.35;2.10;;;;;;;;;;4974296;28;20435;-80
2023/04/27 12:11:14;;;;;;;4.13;1.90;;;;;;;;;;4975096;28;20448;-80
2023/04/27 12:13:43;;;;;;;3.53;1.67;;;;;;;;;;4971686;28;20491;-80
2023/04/27 12:16:16;;;;;;;4.35;1.80;;;;;;;;;;4985165;28;21271;-80
2023/04/27 12:18:44;;;;;;;5.10;1.80;;;;;;;;;;4982923;28;20437;-80
2023/04/27 12:21:13;;;;;;;5.07;1.80;;;;;;;;;;4979513;28;21517;-80
2023/04/27 12:23:45;;;;;;;4.50;2.00;;;;;;;;;;4975030;28;20455;-80
2023/04/27 12:26:13;;;;;;;3.75;2.03;;;;;;;;;;4974011;28;20929;-80
2023/04/27 12:28:47;;;;;;;5.20;2.15;;;;;;;;;;4984868;28;20445;-80
2023/04/27 12:31:23;;;;;;;5.63;2.17;;;;;;;;;;4983177;28;20944;-81
2023/04/27 12:33:56;;;;;;;5.43;2.22;;;;;;;;;;4974131;28;20420;-81
2023/04/27 12:36:23;;;;;;;5.20;2.00;;;;;;;;;;4985342;28;20439;-81
2023/04/27 12:38:52;;;;;;;4.07;1.95;;;;;;;;;;4984546;28;20430;-82
2023/04/27 12:41:25;;;;;;;5.63;2.47;;;;;;;;;;4960525;28;20418;-80
2023/04/27 12:43:59;;;;;;;4.70;2.25;;;;;;;;;;4995619;28;20449;-81
2023/04/27 12:46:32;;;;;;;5.70;2.33;;;;;;;;;;4971077;28;20426;-81
2023/04/27 12:49:00;;;;;;;6.77;2.43;;;;;;;;;;4974316;28;20434;-81
2023/04/27 12:51:28;;;;;;;5.10;2.40;;;;;;;;;;4986224;28;20435;-80
2023/04/27 12:53:56;;;;;;;5.05;2.35;;;;;;;;;;4987100;28;21083;-79
2023/04/27 12:56:29;;;;;;;5.03;2.20;;;;;;;;;;4973633;28;20435;-82
2023/04/27 12:58:57;;;;;;;5.75;2.40;;;;;;;;;;4990703;28;20799;-80
2023/04/27 13:01:31;;;;;;;6.07;2.40;;;;;;;;;;4973586;28;20945;-80
2023/04/27 13:04:04;;;;;;;4.22;2.30;;;;;;;;;;4986404;28;20461;-80
2023/04/27 13:06:37;;;;;;;5.25;2.50;;;;;;;;;;4990835;28;20434;-80
2023/04/27 13:09:05;;;;;;;6.15;2.75;;;;;;;;;;4974271;28;20448;-81
2023/04/27 13:11:33;;;;;;;6.90;2.50;;;;;;;;;;4975314;28;21171;-80
2023/04/27 13:14:01;;;;;;;8.45;3.00;;;;;;;;;;4977958;28;20437;-79
2023/04/27 13:16:30;;;;;;;6.17;2.40;;;;;;;;;;4973462;28;20477;-81
2023/04/27 13:18:58;;;;;;;5.47;2.72;;;;;;;;;;4974644;28;20413;-80
2023/04/27 13:21:26;;;;;;;8.13;2.72;;;;;;;;;;4975825;28;20430;-81
2023/04/27 13:23:55;;;;;;;5.78;2.55;;;;;;;;;;4972147;28;20480;-81
2023/04/27 13:26:23;;;;;;;6.00;2.83;;;;;;;;;;4967921;28;20438;-81
2023/04/27 13:28:51;;;;;;;5.28;2.60;;;;;;;;;;4987854;28;20450;-81
2023/04/27 13:31:19;;;;;;;7.85;3.03;;;;;;;;;;4971891;28;21672;-81
2023/04/27 13:33:53;;;;;;;6.30;2.70;;;;;;;;;;4966754;28;20432;-81
2023/04/27 13:36:27;;;;;;;6.57;2.83;;;;;;;;;;4983384;28;20427;-80
2023/04/27 13:38:55;;;;;;;6.82;2.70;;;;;;;;;;4989332;28;20438;-81
2023/04/27 13:41:23;;;;;;;6.15;2.75;;;;;;;;;;4967250;28;20433;-80
2023/04/27 13:43:56;;;;;;;5.95;2.60;;;;;;;;;;4984385;28;20445;-81
2023/04/27 13:46:29;;;;;;;5.05;2.50;;;;;;;;;;4971526;28;21893;-81
2023/04/27 13:48:58;;;;;;;4.15;2.38;;;;;;;;;;4969703;28;20439;-80
2023/04/27 13:51:35;;;;;;;5.65;2.33;;;;;;;;;;5075969;27;21184;-79
2023/04/27 13:54:08;;;;;;;4.80;2.33;;;;;;;;;;5059967;28;20419;-80
2023/04/27 13:56:37;;;;;;;6.18;2.42;;;;;;;;;;5054178;28;20436;-79
2023/04/27 13:59:05;;;;;;;5.00;2.28;;;;;;;;;;5062554;28;20427;-79
2023/04/27 14:01:38;;;;;;;5.35;2.33;;;;;;;;;;5056863;28;20435;-79
2023/04/27 14:04:11;;;;;;;5.13;2.22;;;;;;;;;;5059083;28;20430;-79
2023/04/27 14:06:45;;;;;;;5.18;2.20;;;;;;;;;;5053587;28;21635;-80
2023/04/27 14:09:13;;;;;;;6.22;2.25;;;;;;;;;;5056973;28;20443;-80
2023/04/27 14:11:41;;;;;;;6.80;2.30;;;;;;;;;;5057528;28;20420;-79
2023/04/27 14:14:09;;;;;;;4.57;2.20;;;;;;;;;;5055169;28;20457;-79
2023/04/27 14:16:37;;;;;;;4.22;2.30;;;;;;;;;;5051492;28;20435;-80
2023/04/27 14:19:04;;;;;;;4.95;2.20;;;;;;;;;;5055835;28;20918;-79
2023/04/27 14:21:32;;;;;;;5.53;2.47;;;;;;;;;;5054939;28;21005;-79
2023/04/27 14:24:06;;;;;;;5.15;2.17;;;;;;;;;;5060645;28;20423;-81
2023/04/27 14:26:34;;;;;;;5.10;2.35;;;;;;;;;;5073474;28;20437;-79
2023/04/27 14:29:07;;;;;;;4.88;2.28;;;;;;;;;;5058610;28;20430;-80
2023/04/27 14:31:35;;;;;;;7.67;2.40;;;;;;;;;;5053789;28;21623;-79
2023/04/27 14:34:03;;;;;;;5.72;2.63;;;;;;;;;;5056400;28;20954;-80
2023/04/27 14:36:31;;;;;;;5.95;2.60;;;;;;;;;;5060714;28;20426;-79
2023/04/27 14:39:05;;;;;;;6.63;2.67;;;;;;;;;;5054891;28;20445;-80
2023/04/27 14:41:35;;;;;;;6.00;2.67;;;;;;;;;;5040712;28;20434;-80
2023/04/27 14:44:03;;;;;;;6.32;2.60;;;;;;;;;;5029725;28;20433;-80
2023/04/27 14:46:31;;;;;;;7.50;2.60;;;;;;;;;;5035609;28;20447;-80
2023/04/27 14:49:03;;;;;;;6.20;2.60;;;;;;;;;;5035934;28;20424;-79
2023/04/27 14:51:36;;;;;;;7.05;3.08;;;;;;;;;;5029653;28;20434;-79
2023/04/27 14:54:10;;;;;;;8.50;3.20;;;;;;;;;;5027619;28;20433;-79
2023/04/27 14:56:45;;;;;;;8.77;2.80;;;;;;;;;;5030883;28;20422;-80
2023/04/27 14:59:12;;;;;;;6.65;2.92;;;;;;;;;;5032314;28;20424;-79
2023/04/27 15:01:45;;;;;;;6.45;2.83;;;;;;;;;;5022002;28;20444;-79
2023/04/27 15:04:20;;;;;;;6.30;2.80;;;;;;;;;;5020082;28;20432;-80